Time;durP1;ratioP1;P1;durP2;ratioP2;P2;SDS_P1;SDS_P2;PMS_P1;PMS_P2;Temp;Humidity;BMP_temperature;BMP_pressure;BME280_temperature;BME280_humidity;BME280_pressure;Samples;Min_cycle;Max_cycle;Signal;HPM_P1;HPM_P2
2023/01/31 00:00:20;;;;;;;0.80;0.80;;;;;;;3.90;71.32;94782.31;5095751;28;20430;-60
2023/01/31 00:02:50;;;;;;;0.50;0.50;;;;;;;3.98;71.46;94779.25;5095869;28;20477;-59
2023/01/31 00:05:18;;;;;;;0.50;0.50;;;;;;;3.92;71.17;94796.75;5092555;28;20426;-60
2023/01/31 00:07:47;;;;;;;0.43;0.43;;;;;;;4.08;70.88;94795.13;5093284;28;20430;-59
2023/01/31 00:10:16;;;;;;;1.53;1.43;;;;;;;4.11;70.07;94789.41;5092931;28;20506;-59
2023/01/31 00:12:45;;;;;;;0.30;0.30;;;;;;;4.07;70.27;94794.34;5092990;28;20808;-60
2023/01/31 00:15:15;;;;;;;0.50;0.47;;;;;;;4.21;69.66;94805.28;5092878;28;20935;-59
2023/01/31 00:17:43;;;;;;;6.90;1.53;;;;;;;3.25;71.22;94805.63;5093496;28;20468;-59
2023/01/31 00:20:13;;;;;;;5.37;1.23;;;;;;;3.08;74.64;94800.38;5091882;28;20502;-60
2023/01/31 00:22:42;;;;;;;0.80;0.80;;;;;;;3.45;72.93;94812.00;5092972;28;20952;-60
2023/01/31 00:25:10;;;;;;;0.30;0.30;;;;;;;3.82;72.05;94791.34;5092238;28;20465;-60
2023/01/31 00:27:38;;;;;;;0.50;0.50;;;;;;;3.95;71.46;94788.41;5092922;28;20454;-60
2023/01/31 00:30:09;;;;;;;0.40;0.30;;;;;;;3.94;71.86;94791.28;5092727;28;20498;-60
2023/01/31 00:32:37;;;;;;;1.43;1.27;;;;;;;3.81;71.31;94785.31;5092504;28;20427;-59
2023/01/31 00:35:06;;;;;;;1.60;0.83;;;;;;;3.59;72.29;94787.06;5092634;28;20444;-59
2023/01/31 00:37:36;;;;;;;1.60;1.50;;;;;;;3.72;71.87;94784.13;5092628;28;20557;-59
2023/01/31 00:40:06;;;;;;;0.70;0.50;;;;;;;3.60;71.86;94774.75;5092591;28;20506;-59
2023/01/31 00:42:34;;;;;;;1.07;1.07;;;;;;;3.24;71.38;94730.72;5092547;28;20418;-60
2023/01/31 00:45:05;;;;;;;1.07;1.07;;;;;;;3.44;72.19;94773.72;5092446;28;20431;-60
2023/01/31 00:47:33;;;;;;;1.80;1.70;;;;;;;3.45;72.13;94782.38;5091751;28;20436;-60
2023/01/31 00:50:04;;;;;;;0.87;0.87;;;;;;;3.27;72.25;94778.16;5091888;28;20511;-60
2023/01/31 00:52:32;;;;;;;2.90;2.80;;;;;;;2.74;72.46;94688.78;5092645;28;20942;-60
2023/01/31 00:55:03;;;;;;;0.43;0.43;;;;;;;3.32;72.64;94777.44;5091874;28;20435;-60
2023/01/31 00:57:31;;;;;;;0.97;0.97;;;;;;;2.53;74.91;94776.56;5091462;28;20933;-59
2023/01/31 01:00:00;;;;;;;1.47;1.47;;;;;;;2.14;79.07;94785.19;5092256;28;20429;-59
2023/01/31 01:02:47;;;;;;;2.10;0.90;;;;;;;1.80;88.86;94773.72;5092024;28;20423;-60
2023/01/31 01:05:16;;;;;;;0.40;0.30;;;;;;;2.22;93.74;94785.63;5092053;28;20470;-60
2023/01/31 01:07:44;;;;;;;0.33;0.33;;;;;;;2.62;90.40;94769.16;5091786;28;20512;-60
2023/01/31 01:10:14;;;;;;;0.80;0.80;;;;;;;2.68;87.23;94763.78;5091777;28;20467;-60
2023/01/31 01:12:42;;;;;;;1.33;1.23;;;;;;;2.52;91.42;94770.56;5091345;28;20484;-60
2023/01/31 01:15:11;;;;;;;1.43;0.50;;;;;;;2.90;88.57;94772.56;5091181;28;20421;-60
2023/01/31 01:17:39;;;;;;;0.50;0.40;;;;;;;3.38;83.91;94769.47;5092413;28;20786;-61
2023/01/31 01:20:09;;;;;;;0.80;0.80;;;;;;;3.69;81.37;94765.50;5091860;28;20461;-60
2023/01/31 01:22:37;;;;;;;0.80;0.80;;;;;;;3.16;83.31;94771.19;5091951;28;20527;-59
2023/01/31 01:25:07;;;;;;;0.80;0.80;;;;;;;2.73;85.43;94773.56;5091804;28;20834;-60
2023/01/31 01:27:37;;;;;;;1.40;1.30;;;;;;;2.93;85.20;94766.06;5092185;28;20458;-59
2023/01/31 01:30:24;;;;;;;2.50;1.10;;;;;;;2.94;84.73;94759.78;5091627;28;20815;-60
2023/01/31 01:32:55;;;;;;;0.90;0.90;;;;;;;2.31;87.18;94710.22;5091835;28;20947;-60
2023/01/31 01:35:23;;;;;;;0.90;0.90;;;;;;;2.24;89.58;94726.06;5091860;28;20767;-60
2023/01/31 01:37:51;;;;;;;2.33;2.23;;;;;;;2.51;88.85;94750.66;5091776;28;20519;-60
2023/01/31 01:40:20;;;;;;;2.77;0.50;;;;;;;2.35;87.69;94763.69;5091988;28;20791;-60
2023/01/31 01:42:50;;;;;;;0.80;0.60;;;;;;;2.26;90.15;94754.59;5091832;28;20423;-60
2023/01/31 01:45:18;;;;;;;0.87;0.60;;;;;;;2.30;89.47;94747.88;5091623;28;20469;-60
2023/01/31 01:47:52;;;;;;;1.47;1.47;;;;;;;2.42;87.67;94749.44;5091692;28;20424;-59
2023/01/31 01:50:28;;;;;;;0.30;0.23;;;;;;;2.51;85.21;94737.56;5091099;28;20558;-60
2023/01/31 01:53:01;;;;;;;0.90;0.90;;;;;;;2.67;84.86;94738.66;5090801;28;20503;-60
2023/01/31 01:55:34;;;;;;;2.27;0.37;;;;;;;3.13;81.78;94748.09;5092960;28;20864;-59
2023/01/31 01:58:08;;;;;;;1.13;1.03;;;;;;;3.15;80.41;94751.25;5094244;28;20925;-59
2023/01/31 02:00:37;;;;;;;0.53;0.53;;;;;;;2.78;79.43;94710.84;5091053;28;20474;-60
2023/01/31 02:03:07;;;;;;;0.87;0.70;;;;;;;3.06;79.28;94758.69;5091306;28;20436;-60
2023/01/31 02:05:40;;;;;;;3.13;1.27;;;;;;;2.73;79.92;94750.81;5091355;28;20463;-60
2023/01/31 02:08:10;;;;;;;1.87;0.90;;;;;;;3.30;78.44;94759.38;5092242;28;20433;-60
2023/01/31 02:10:43;;;;;;;5.83;0.50;;;;;;;3.49;76.99;94750.22;5095374;28;20891;-59
2023/01/31 02:13:15;;;;;;;0.30;0.30;;;;;;;3.50;75.13;94748.41;5095404;28;20448;-60
2023/01/31 02:15:43;;;;;;;0.40;0.30;;;;;;;2.75;76.22;94779.34;5094854;28;20490;-60
2023/01/31 02:18:13;;;;;;;0.63;0.63;;;;;;;2.80;76.82;94775.00;5095591;28;20436;-60
2023/01/31 02:21:09;;;;;;;1.60;1.60;;;;;;;3.06;76.45;94768.41;5095682;28;20464;-60
2023/01/31 02:24:02;;;;;;;0.80;0.30;;;;;;;3.08;75.65;94753.25;5094895;28;20429;-60
2023/01/31 02:27:00;;;;;;;1.00;1.00;;;;;;;3.22;75.35;94772.84;5095725;28;20497;-60
2023/01/31 02:29:49;;;;;;;2.50;0.70;;;;;;;3.08;75.48;94766.34;5095247;28;21023;-60
2023/01/31 02:32:49;;;;;;;0.40;0.30;;;;;;;2.98;74.56;94758.31;5094485;28;20965;-59
2023/01/31 02:35:28;;;;;;;1.03;1.03;;;;;;;3.52;73.04;94789.06;5060048;28;21021;-59
2023/01/31 02:38:08;;;;;;;1.33;0.50;;;;;;;3.47;73.52;94790.78;5095129;28;21005;-60
2023/01/31 02:40:42;;;;;;;0.87;0.40;;;;;;;2.90;73.93;94756.06;5095076;28;20498;-59
2023/01/31 02:43:19;;;;;;;0.90;0.90;;;;;;;3.04;75.51;94780.91;5094792;28;20511;-59
2023/01/31 02:45:55;;;;;;;0.50;0.40;;;;;;;3.05;74.86;94775.47;5094783;28;20975;-60
2023/01/31 02:48:35;;;;;;;3.23;0.40;;;;;;;3.33;74.71;94786.91;5095086;28;20478;-60
2023/01/31 02:51:08;;;;;;;0.30;0.20;;;;;;;3.28;74.80;94758.81;5095118;28;20562;-60
2023/01/31 02:53:44;;;;;;;0.93;0.87;;;;;;;3.45;74.28;94785.81;5095118;28;20458;-60
2023/01/31 02:56:17;;;;;;;0.83;0.83;;;;;;;3.61;74.59;94768.50;5094744;28;20516;-60
2023/01/31 02:58:50;;;;;;;2.10;0.83;;;;;;;3.52;75.12;94759.44;5094784;28;20430;-60
2023/01/31 03:01:23;;;;;;;0.30;0.30;;;;;;;3.47;75.44;94775.88;5094694;28;20437;-61
2023/01/31 03:03:57;;;;;;;1.03;1.03;;;;;;;2.94;76.50;94765.03;5094548;28;20490;-60
2023/01/31 03:06:53;;;;;;;0.53;0.53;;;;;;;2.76;77.51;94771.25;5094623;28;20425;-60
2023/01/31 03:09:35;;;;;;;1.27;1.27;;;;;;;2.16;77.72;94694.25;5094529;28;20430;-61
2023/01/31 03:12:32;;;;;;;0.57;0.57;;;;;;;2.90;80.90;94754.25;5094098;28;20475;-61
2023/01/31 03:15:19;;;;;;;2.33;0.70;;;;;;;3.01;78.76;94753.38;5094343;28;20421;-61
2023/01/31 03:17:57;;;;;;;0.53;0.50;;;;;;;2.56;80.40;94757.78;5094336;28;20436;-60
2023/01/31 03:20:34;;;;;;;5.00;0.40;;;;;;;2.71;81.40;94752.06;5092362;28;20476;-60
2023/01/31 03:23:08;;;;;;;0.97;0.97;;;;;;;2.30;83.96;94760.97;5093746;28;20425;-61
2023/01/31 03:25:38;;;;;;;1.40;1.37;;;;;;;2.72;84.83;94759.66;5093427;28;20551;-60
2023/01/31 03:28:11;;;;;;;1.70;1.70;;;;;;;2.94;83.12;94775.50;5093099;28;20425;-61
2023/01/31 03:30:45;;;;;;;0.50;0.50;;;;;;;2.49;84.75;94781.47;5093812;28;20416;-61
2023/01/31 03:33:20;;;;;;;1.23;1.23;;;;;;;2.16;85.00;94757.00;5094234;28;20501;-60
2023/01/31 03:35:55;;;;;;;0.50;0.40;;;;;;;2.13;87.06;94762.69;5093777;28;20480;-61
2023/01/31 03:38:28;;;;;;;5.97;0.70;;;;;;;2.04;90.56;94777.94;5093605;28;20991;-61
2023/01/31 03:41:02;;;;;;;0.30;0.20;;;;;;;2.67;88.42;94771.84;5094178;28;20432;-62
2023/01/31 03:43:37;;;;;;;0.30;0.30;;;;;;;3.01;84.37;94773.56;5093827;28;20512;-60
2023/01/31 03:46:09;;;;;;;0.30;0.30;;;;;;;2.12;82.03;94659.16;5092296;28;20435;-60
2023/01/31 03:48:42;;;;;;;0.67;0.67;;;;;;;2.96;81.85;94778.69;5093769;28;20793;-60
2023/01/31 03:51:18;;;;;;;0.30;0.20;;;;;;;3.20;80.21;94772.28;5093299;28;20438;-60
2023/01/31 03:53:52;;;;;;;0.57;0.57;;;;;;;3.20;79.04;94777.53;5093029;28;20425;-60
2023/01/31 03:56:27;;;;;;;0.30;0.27;;;;;;;2.65;81.43;94787.00;5093280;28;20860;-60
2023/01/31 03:59:00;;;;;;;5.00;1.37;;;;;;;2.84;80.60;94785.78;5093523;28;20482;-60
2023/01/31 04:01:31;;;;;;;0.60;0.60;;;;;;;2.85;79.79;94782.94;5093431;28;20523;-60
2023/01/31 04:04:05;;;;;;;11.47;1.70;;;;;;;2.86;79.03;94774.06;5093161;28;20434;-60
2023/01/31 04:06:35;;;;;;;0.97;0.97;;;;;;;2.96;78.08;94781.31;5092909;28;20453;-60
2023/01/31 04:09:04;;;;;;;3.60;3.40;;;;;;;2.63;80.39;94786.44;5093399;28;20449;-60
2023/01/31 04:11:38;;;;;;;4.93;2.43;;;;;;;2.63;79.88;94789.88;5093069;28;20555;-60
2023/01/31 04:14:06;;;;;;;1.43;1.33;;;;;;;1.94;81.19;94733.28;5092969;28;20778;-60
2023/01/31 04:16:35;;;;;;;1.13;0.93;;;;;;;2.50;81.36;94783.03;5092840;28;20465;-60
2023/01/31 04:19:04;;;;;;;0.90;0.90;;;;;;;2.55;82.29;94764.84;5092220;28;20441;-61
2023/01/31 04:21:32;;;;;;;2.30;0.63;;;;;;;2.24;80.83;94699.94;5093099;28;20438;-60
2023/01/31 04:24:02;;;;;;;0.93;0.80;;;;;;;2.48;83.55;94735.41;5093484;28;20820;-60
2023/01/31 04:26:30;;;;;;;0.60;0.60;;;;;;;3.19;82.11;94776.72;5092663;28;20436;-61
2023/01/31 04:28:59;;;;;;;1.07;0.97;;;;;;;3.13;80.20;94771.66;5091984;28;20785;-61
2023/01/31 04:31:27;;;;;;;2.00;1.43;;;;;;;3.21;81.07;94768.66;5091896;28;21053;-60
2023/01/31 04:33:56;;;;;;;0.80;0.80;;;;;;;3.10;78.50;94769.50;5092861;28;20776;-60
2023/01/31 04:36:25;;;;;;;1.03;0.80;;;;;;;2.94;78.36;94767.66;5092684;28;20482;-61
2023/01/31 04:38:53;;;;;;;1.37;1.27;;;;;;;3.02;77.84;94768.06;5092785;28;20495;-60
2023/01/31 04:41:23;;;;;;;1.20;1.20;;;;;;;3.03;77.26;94780.13;5092790;28;20427;-60
2023/01/31 04:43:51;;;;;;;1.60;1.50;;;;;;;2.71;78.49;94786.84;5092921;28;20457;-60
2023/01/31 04:46:20;;;;;;;0.80;0.40;;;;;;;2.96;78.39;94794.41;5092450;28;20454;-60
2023/01/31 04:48:48;;;;;;;1.13;1.13;;;;;;;2.90;77.88;94790.09;5092796;28;20513;-60
2023/01/31 04:51:16;;;;;;;0.30;0.30;;;;;;;2.96;77.76;94781.31;5092904;28;20433;-60
2023/01/31 04:53:45;;;;;;;3.60;3.30;;;;;;;2.93;78.54;94772.09;5092355;28;20510;-60
2023/01/31 04:56:13;;;;;;;0.40;0.40;;;;;;;2.80;79.51;94772.38;5092596;28;20426;-60
2023/01/31 04:58:43;;;;;;;1.60;1.50;;;;;;;2.85;80.22;94763.81;5092199;28;20967;-60
2023/01/31 05:01:11;;;;;;;2.00;1.17;;;;;;;2.84;80.44;94760.41;5092780;28;20512;-60
2023/01/31 05:03:40;;;;;;;1.70;1.60;;;;;;;2.56;80.81;94763.03;5092140;28;20445;-60
2023/01/31 05:06:08;;;;;;;1.60;1.50;;;;;;;2.74;81.44;94768.06;5092804;28;20428;-60
2023/01/31 05:08:36;;;;;;;1.40;1.20;;;;;;;2.68;81.75;94794.41;5091637;28;20531;-60
2023/01/31 05:11:05;;;;;;;0.93;0.93;;;;;;;2.41;82.84;94750.47;5092316;28;20520;-60
2023/01/31 05:13:37;;;;;;;1.73;0.87;;;;;;;2.67;82.61;94792.78;5092176;28;20545;-61
2023/01/31 05:16:09;;;;;;;1.73;0.97;;;;;;;2.37;83.98;94796.41;5092209;28;20430;-60
2023/01/31 05:18:38;;;;;;;0.80;0.80;;;;;;;2.23;83.20;94734.94;5092208;28;20438;-60
2023/01/31 05:21:08;;;;;;;2.77;1.83;;;;;;;2.69;82.90;94806.44;5092164;28;20429;-61
2023/01/31 05:23:36;;;;;;;0.70;0.60;;;;;;;2.64;82.44;94788.81;5091822;28;20856;-60
2023/01/31 05:26:05;;;;;;;18.53;1.47;;;;;;;2.74;82.36;94809.13;5091366;28;20817;-61
2023/01/31 05:28:34;;;;;;;2.13;1.90;;;;;;;2.80;80.72;94784.66;5091652;28;20853;-60
2023/01/31 05:31:05;;;;;;;0.50;0.50;;;;;;;2.80;80.25;94813.44;5091100;28;20505;-60
2023/01/31 05:33:35;;;;;;;1.63;1.33;;;;;;;2.56;81.61;94782.13;5091515;28;20473;-60
2023/01/31 05:36:04;;;;;;;6.10;0.50;;;;;;;2.54;82.39;94820.81;5090852;28;20468;-60
2023/01/31 05:38:33;;;;;;;1.23;0.87;;;;;;;2.77;82.30;94834.84;5091457;28;20532;-60
2023/01/31 05:41:01;;;;;;;2.80;1.70;;;;;;;2.66;81.87;94825.22;5091432;28;20424;-60
2023/01/31 05:43:30;;;;;;;2.73;2.63;;;;;;;2.37;83.41;94824.38;5097177;28;20468;-61
2023/01/31 05:45:58;;;;;;;2.53;2.17;;;;;;;2.29;83.69;94807.22;5098329;28;20430;-61
2023/01/31 05:48:26;;;;;;;6.17;1.90;;;;;;;1.78;84.22;94747.84;5098101;28;20891;-61
2023/01/31 05:50:56;;;;;;;1.53;1.43;;;;;;;2.54;84.61;94815.56;5097508;28;20437;-61
2023/01/31 05:53:25;;;;;;;2.50;1.07;;;;;;;2.69;84.36;94822.13;5097857;28;20466;-60
2023/01/31 05:55:53;;;;;;;2.00;1.90;;;;;;;2.06;85.38;94757.59;5098144;28;20819;-61
2023/01/31 05:58:22;;;;;;;5.23;4.87;;;;;;;2.83;84.93;94823.47;5098759;28;20938;-60
2023/01/31 06:00:50;;;;;;;2.50;2.40;;;;;;;2.65;82.81;94781.78;5098308;28;20446;-60
2023/01/31 06:03:18;;;;;;;2.10;2.00;;;;;;;3.26;80.65;94828.97;5098515;28;20422;-61
2023/01/31 06:05:46;;;;;;;1.20;1.20;;;;;;;3.24;78.24;94835.47;5098090;28;20906;-61
2023/01/31 06:08:16;;;;;;;1.97;1.87;;;;;;;2.81;80.85;94841.22;5098094;28;20425;-61
2023/01/31 06:10:45;;;;;;;4.33;4.13;;;;;;;2.70;84.25;94834.19;5097940;28;20438;-60
2023/01/31 06:13:13;;;;;;;2.47;2.37;;;;;;;2.33;84.55;94755.25;5098319;28;20782;-61
2023/01/31 06:15:43;;;;;;;3.53;2.67;;;;;;;3.18;82.30;94843.25;5098162;28;20421;-60
2023/01/31 06:18:13;;;;;;;2.37;2.17;;;;;;;3.10;79.97;94842.81;5097952;28;20422;-60
2023/01/31 06:20:41;;;;;;;4.20;2.60;;;;;;;3.52;77.44;94851.13;5097861;28;20426;-61
2023/01/31 06:23:10;;;;;;;7.43;3.00;;;;;;;3.32;78.22;94843.72;5098041;28;20427;-61
2023/01/31 06:25:39;;;;;;;2.03;1.93;;;;;;;3.50;78.72;94856.63;5098163;28;20447;-61
2023/01/31 06:28:08;;;;;;;2.03;1.93;;;;;;;3.11;80.06;94862.75;5097522;28;20452;-60
2023/01/31 06:30:36;;;;;;;1.70;1.60;;;;;;;3.17;81.01;94856.53;5096975;28;20479;-60
2023/01/31 06:33:05;;;;;;;2.57;1.70;;;;;;;2.69;82.47;94863.97;5097343;28;20473;-59
2023/01/31 06:35:33;;;;;;;2.50;2.40;;;;;;;2.92;83.60;94867.34;5097115;28;20554;-59
2023/01/31 06:38:01;;;;;;;1.37;1.27;;;;;;;3.14;82.81;94868.28;5097372;28;20421;-60
2023/01/31 06:40:30;;;;;;;1.20;1.20;;;;;;;3.18;81.64;94864.19;5097225;28;20454;-60
2023/01/31 06:43:02;;;;;;;3.23;2.93;;;;;;;3.15;81.47;94869.09;5097748;28;20463;-60
2023/01/31 06:45:31;;;;;;;0.60;0.60;;;;;;;3.19;80.58;94872.81;5097690;28;20427;-60
2023/01/31 06:48:00;;;;;;;2.63;2.43;;;;;;;3.25;80.31;94869.28;5097439;28;20432;-59
2023/01/31 06:50:28;;;;;;;2.93;2.50;;;;;;;3.24;80.04;94862.44;5097965;28;20509;-59
2023/01/31 06:52:58;;;;;;;1.17;1.13;;;;;;;3.57;80.48;94865.13;5097648;28;20562;-59
2023/01/31 06:55:26;;;;;;;1.33;1.20;;;;;;;3.79;79.18;94871.25;5093983;28;21059;-59
2023/01/31 06:57:55;;;;;;;4.27;3.30;;;;;;;3.89;76.59;94875.88;5094588;28;20436;-59
2023/01/31 07:00:25;;;;;;;1.43;1.43;;;;;;;4.14;75.86;94868.41;5094755;28;20434;-59
2023/01/31 07:02:54;;;;;;;1.37;1.27;;;;;;;3.83;75.97;94876.81;5094806;28;20423;-59
2023/01/31 07:05:23;;;;;;;2.77;0.83;;;;;;;3.84;74.53;94873.94;5094526;28;20519;-59
2023/01/31 07:07:52;;;;;;;1.53;1.43;;;;;;;3.77;73.72;94878.56;5094283;28;20991;-59
2023/01/31 07:10:20;;;;;;;0.73;0.73;;;;;;;3.99;74.54;94883.09;5094391;28;20430;-59
2023/01/31 07:12:49;;;;;;;2.27;2.17;;;;;;;3.97;74.12;94885.97;5094005;28;20459;-60
2023/01/31 07:15:17;;;;;;;1.47;0.90;;;;;;;4.06;74.55;94895.03;5094244;28;20433;-60
2023/01/31 07:17:47;;;;;;;3.33;3.00;;;;;;;4.10;75.11;94892.72;5094195;28;20454;-60
2023/01/31 07:20:16;;;;;;;2.63;2.47;;;;;;;4.31;74.41;94876.22;5094306;28;20978;-60
2023/01/31 07:22:44;;;;;;;3.20;3.03;;;;;;;4.61;72.45;94884.53;5093742;28;20730;-61
2023/01/31 07:25:12;;;;;;;6.67;2.57;;;;;;;4.65;72.82;94887.47;5094451;28;20428;-61
2023/01/31 07:27:41;;;;;;;6.27;4.33;;;;;;;4.38;72.04;94890.78;5093712;28;20442;-60
2023/01/31 07:30:11;;;;;;;5.80;4.00;;;;;;;4.55;72.71;94892.59;5093113;28;20427;-61
2023/01/31 07:32:39;;;;;;;2.63;2.47;;;;;;;4.66;72.89;94891.66;5093756;28;20433;-61
2023/01/31 07:35:10;;;;;;;9.40;2.10;;;;;;;4.89;73.13;94891.44;5093505;28;20472;-61
2023/01/31 07:37:39;;;;;;;1.97;1.87;;;;;;;4.13;73.47;94816.97;5092933;28;20824;-61
2023/01/31 07:40:09;;;;;;;2.83;2.60;;;;;;;5.02;74.20;94899.78;5093714;28;20516;-61
2023/01/31 07:42:37;;;;;;;7.50;2.20;;;;;;;4.99;72.66;94902.88;5094054;28;20433;-61
2023/01/31 07:45:07;;;;;;;6.10;4.33;;;;;;;4.99;72.78;94904.69;5093619;28;20418;-61
2023/01/31 07:47:50;;;;;;;4.83;4.53;;;;;;;5.04;72.01;94902.94;5093731;28;20435;-61
2023/01/31 07:50:20;;;;;;;4.33;4.03;;;;;;;4.90;73.25;94896.47;5093623;28;20460;-61
2023/01/31 07:52:49;;;;;;;15.77;5.10;;;;;;;5.01;72.15;94897.38;5093781;28;20432;-61
2023/01/31 07:55:18;;;;;;;2.97;2.20;;;;;;;5.19;72.17;94894.44;5093399;28;20479;-62
2023/01/31 07:57:46;;;;;;;2.83;0.97;;;;;;;5.22;72.67;94903.66;5093092;28;20522;-62
2023/01/31 08:05:48;;;;;;;6.43;5.87;;;;;;;4.60;72.38;94906.56;5092396;28;20885;-60
2023/01/31 08:08:16;;;;;;;3.23;1.57;;;;;;;4.29;72.36;94905.34;5093579;28;20523;-60
2023/01/31 08:10:46;;;;;;;2.80;2.60;;;;;;;3.88;73.26;94855.13;5093132;28;20810;-61
2023/01/31 08:13:14;;;;;;;1.47;1.37;;;;;;;4.80;72.42;94912.09;5093110;28;20778;-61
2023/01/31 08:15:42;;;;;;;2.87;2.77;;;;;;;4.79;72.28;94910.50;5093207;28;20857;-61
2023/01/31 08:18:11;;;;;;;14.20;2.97;;;;;;;4.90;72.57;94912.22;5092992;28;20501;-61
2023/01/31 08:20:40;;;;;;;3.83;1.50;;;;;;;5.21;71.41;94909.97;5072759;28;20524;-61
2023/01/31 08:23:09;;;;;;;2.10;2.00;;;;;;;4.29;71.64;94823.22;5072946;28;20808;-61
2023/01/31 08:25:38;;;;;;;4.40;1.93;;;;;;;4.94;71.66;94915.94;5072555;28;20887;-61
2023/01/31 08:28:06;;;;;;;2.43;2.30;;;;;;;4.79;71.88;94865.88;5072509;28;20520;-61
2023/01/31 08:30:35;;;;;;;2.60;2.50;;;;;;;5.26;72.44;94912.66;5071946;28;20429;-61
2023/01/31 08:33:03;;;;;;;1.00;1.00;;;;;;;5.58;71.40;94910.88;5071310;28;20813;-62
2023/01/31 08:35:31;;;;;;;1.83;1.73;;;;;;;5.53;71.14;94916.09;5071921;28;20480;-61
2023/01/31 08:37:59;;;;;;;3.77;3.47;;;;;;;5.18;71.48;94913.09;5072398;28;20817;-62
2023/01/31 08:40:44;;;;;;;4.40;4.00;;;;;;;5.17;75.72;94908.84;5072230;28;20953;-55
2023/01/31 08:43:13;;;;;;;2.87;2.67;;;;;;;5.58;76.85;94916.16;5072416;28;20425;-55
2023/01/31 08:45:42;;;;;;;1.50;1.43;;;;;;;5.73;70.99;94898.69;5072151;28;20818;-54
2023/01/31 08:48:13;;;;;;;3.80;2.73;;;;;;;6.25;68.17;94895.44;5072220;28;20421;-55
2023/01/31 08:50:42;;;;;;;4.03;3.00;;;;;;;6.42;68.36;94903.22;5072052;28;20930;-54
2023/01/31 08:53:10;;;;;;;5.00;4.67;;;;;;;6.66;68.33;94914.94;5071907;28;20465;-53
2023/01/31 08:55:38;;;;;;;3.07;2.97;;;;;;;6.69;66.46;94919.72;5071531;28;20478;-53
2023/01/31 08:58:08;;;;;;;3.47;3.13;;;;;;;6.97;66.04;94920.16;5072002;28;20470;-54
2023/01/31 09:00:36;;;;;;;1.90;1.80;;;;;;;6.92;65.18;94929.88;5072361;28;20848;-54
2023/01/31 09:03:04;;;;;;;13.93;3.13;;;;;;;6.83;65.89;94926.13;5071737;28;20433;-52
2023/01/31 09:05:33;;;;;;;6.97;5.03;;;;;;;7.04;64.76;94927.81;5072002;28;20927;-52
2023/01/31 09:08:01;;;;;;;2.53;2.43;;;;;;;7.35;65.11;94929.53;5072442;28;20543;-53
2023/01/31 09:10:29;;;;;;;2.27;2.17;;;;;;;7.49;65.48;94932.47;5071174;28;20966;-52
2023/01/31 09:12:59;;;;;;;2.60;2.50;;;;;;;7.28;65.18;94928.19;5071399;28;20495;-52
2023/01/31 09:15:29;;;;;;;3.40;2.43;;;;;;;7.03;65.64;94929.66;5071902;28;20946;-52
2023/01/31 09:17:57;;;;;;;6.33;4.47;;;;;;;6.68;64.71;94931.31;5071371;28;20483;-52
2023/01/31 09:20:28;;;;;;;3.00;2.53;;;;;;;6.13;66.27;94918.53;5071716;28;20454;-52
2023/01/31 09:22:57;;;;;;;2.33;2.10;;;;;;;6.39;66.08;94917.69;5071551;28;20438;-52
2023/01/31 09:25:25;;;;;;;0.80;0.80;;;;;;;7.44;65.33;94914.78;5071483;28;20421;-52
2023/01/31 09:28:12;;;;;;;4.90;3.03;;;;;;;8.34;63.14;94881.72;5071854;28;20440;-52
2023/01/31 09:30:43;;;;;;;1.47;1.37;;;;;;;9.29;61.00;94901.00;5071338;28;20442;-52
2023/01/31 09:33:11;;;;;;;1.73;1.63;;;;;;;10.15;54.34;94896.84;5071287;28;20431;-53
2023/01/31 09:35:39;;;;;;;1.13;1.10;;;;;;;10.58;50.09;94892.53;5070923;28;20529;-53
2023/01/31 09:38:08;;;;;;;8.53;2.60;;;;;;;10.91;47.59;94893.53;5071325;28;20530;-53
2023/01/31 09:40:39;;;;;;;0.77;0.67;;;;;;;10.89;48.58;94886.91;5071328;28;20554;-53
2023/01/31 09:43:12;;;;;;;1.07;0.60;;;;;;;10.27;46.49;94891.19;5070407;28;20427;-53
2023/01/31 09:45:48;;;;;;;0.50;0.50;;;;;;;10.46;46.23;94894.75;5071040;28;20526;-53
2023/01/31 09:48:20;;;;;;;1.10;0.60;;;;;;;9.99;46.01;94894.56;5071319;28;20459;-53
2023/01/31 09:50:54;;;;;;;0.37;0.30;;;;;;;9.50;46.42;94886.66;5070690;28;20515;-53
2023/01/31 09:53:28;;;;;;;0.50;0.40;;;;;;;9.92;46.03;94880.81;5071183;28;20878;-53
2023/01/31 09:56:06;;;;;;;4.40;1.27;;;;;;;10.83;44.82;94872.94;5071859;28;20476;-54
2023/01/31 09:58:42;;;;;;;0.93;0.50;;;;;;;12.24;44.32;94865.00;5071584;28;20433;-53
2023/01/31 10:01:21;;;;;;;0.50;0.50;;;;;;;12.46;40.61;94859.88;5070780;28;20430;-54
2023/01/31 10:04:09;;;;;;;1.80;1.70;;;;;;;13.38;45.25;94849.13;5071285;28;20429;-64
2023/01/31 10:06:47;;;;;;;0.70;0.60;;;;;;;13.01;39.53;94788.91;5073644;28;20452;-69
2023/01/31 10:09:24;;;;;;;0.50;0.50;;;;;;;13.23;38.54;94797.00;5072500;28;20902;-70
2023/01/31 10:11:56;;;;;;;0.40;0.30;;;;;;;13.11;36.73;94825.97;5071218;28;20436;-67
2023/01/31 10:14:33;;;;;;;0.40;0.30;;;;;;;14.11;34.40;94808.88;5070732;28;20426;-65
2023/01/31 10:17:09;;;;;;;0.40;0.37;;;;;;;14.88;32.87;94759.44;5071367;28;20524;-61
2023/01/31 10:19:48;;;;;;;0.30;0.20;;;;;;;15.58;33.97;94814.59;5070951;28;20918;-60
2023/01/31 10:22:23;;;;;;;0.97;0.97;;;;;;;15.88;33.01;94805.66;5071398;28;20433;-58
2023/01/31 10:24:57;;;;;;;0.40;0.40;;;;;;;17.14;32.46;94799.56;5071435;28;20466;-56
2023/01/31 10:27:40;;;;;;;0.60;0.43;;;;;;;16.30;34.81;94778.09;5071246;28;20430;-56
2023/01/31 10:30:17;;;;;;;0.37;0.27;;;;;;;14.53;34.34;94797.72;5073114;28;20524;-58
2023/01/31 10:32:54;;;;;;;0.57;0.50;;;;;;;15.63;34.03;94790.41;5075048;28;20539;-58
2023/01/31 10:35:26;;;;;;;0.40;0.30;;;;;;;15.18;32.43;94766.56;5074371;28;20551;-56
2023/01/31 10:38:00;;;;;;;0.40;0.30;;;;;;;14.55;30.92;94579.53;5074956;28;20426;-56
2023/01/31 10:40:33;;;;;;;0.30;0.20;;;;;;;15.35;31.51;94783.72;5074617;28;20433;-56
2023/01/31 10:43:14;;;;;;;0.43;0.43;;;;;;;15.74;31.51;94784.44;5074706;28;20426;-56
2023/01/31 10:45:42;;;;;;;0.90;0.90;;;;;;;15.39;32.66;94761.44;5074430;28;20441;-56
2023/01/31 10:48:18;;;;;;;0.60;0.50;;;;;;;15.36;31.21;94786.06;5074622;28;20449;-55
2023/01/31 10:50:58;;;;;;;0.57;0.47;;;;;;;15.84;31.37;94780.66;5074166;28;20451;-56
2023/01/31 10:53:48;;;;;;;0.40;0.30;;;;;;;15.07;31.42;94786.66;5074029;28;20520;-55
2023/01/31 10:56:26;;;;;;;0.67;0.60;;;;;;;15.84;29.45;94777.97;5074469;28;20560;-55
2023/01/31 10:58:55;;;;;;;0.67;0.67;;;;;;;13.92;32.76;94787.75;5074500;28;20429;-55
2023/01/31 11:01:24;;;;;;;0.40;0.30;;;;;;;13.92;31.09;94771.75;5074442;28;20429;-56
2023/01/31 11:03:56;;;;;;;0.57;0.50;;;;;;;13.96;32.41;94770.84;5074564;28;20429;-56
2023/01/31 11:06:25;;;;;;;1.30;0.30;;;;;;;16.02;32.77;94782.22;5074433;28;20446;-55
2023/01/31 11:08:57;;;;;;;0.30;0.30;;;;;;;14.78;31.58;94783.72;5074126;28;20436;-55
2023/01/31 11:11:27;;;;;;;0.40;0.30;;;;;;;14.15;32.44;94783.19;5073632;28;20944;-56
2023/01/31 11:13:57;;;;;;;0.97;0.97;;;;;;;12.09;33.40;94787.13;5074056;28;20426;-57
2023/01/31 11:16:29;;;;;;;0.40;0.30;;;;;;;12.07;33.83;94791.94;5073670;28;20475;-58
2023/01/31 11:19:02;;;;;;;0.83;0.50;;;;;;;11.59;34.12;94779.13;5073546;28;20469;-60
2023/01/31 11:21:33;;;;;;;0.40;0.37;;;;;;;12.32;35.24;94772.13;5074221;28;20461;-61
2023/01/31 11:24:04;;;;;;;0.40;0.30;;;;;;;11.80;34.27;94769.81;5073726;28;20794;-62
2023/01/31 11:26:36;;;;;;;0.30;0.20;;;;;;;12.34;35.01;94596.47;5073818;28;20468;-63
2023/01/31 11:29:10;;;;;;;0.30;0.20;;;;;;;12.42;34.10;94773.84;5074015;28;20480;-62
2023/01/31 11:31:44;;;;;;;0.40;0.30;;;;;;;12.66;33.17;94767.25;5073789;28;20992;-63
2023/01/31 11:34:25;;;;;;;0.40;0.30;;;;;;;13.31;34.02;94769.69;5073980;28;20787;-62
2023/01/31 11:36:53;;;;;;;0.40;0.30;;;;;;;13.34;33.11;94758.44;5073414;28;20488;-63
2023/01/31 11:39:26;;;;;;;0.67;0.67;;;;;;;14.06;32.33;94755.72;5073612;28;20927;-62
2023/01/31 11:41:55;;;;;;;0.40;0.40;;;;;;;14.65;32.60;94757.16;5073487;28;20463;-61
2023/01/31 11:44:23;;;;;;;0.40;0.40;;;;;;;14.93;30.06;94761.94;5073904;28;20458;-60
2023/01/31 11:46:55;;;;;;;2.50;0.77;;;;;;;14.53;32.29;94752.38;5073485;28;20521;-56
2023/01/31 11:49:29;;;;;;;0.37;0.30;;;;;;;16.10;30.32;94759.25;5073417;28;20421;-56
2023/01/31 11:52:00;;;;;;;0.50;0.33;;;;;;;15.93;30.03;94719.19;5073308;28;20810;-56
2023/01/31 11:54:32;;;;;;;0.30;0.20;;;;;;;16.36;30.57;94762.69;5073551;28;20548;-56
2023/01/31 11:57:01;;;;;;;0.40;0.40;;;;;;;16.31;29.59;94774.34;5073123;28;20480;-57
2023/01/31 11:59:31;;;;;;;0.30;0.20;;;;;;;16.72;29.04;94762.28;5073318;28;20800;-56
2023/01/31 12:02:01;;;;;;;0.30;0.20;;;;;;;15.70;29.46;94742.63;5072981;28;20434;-56
2023/01/31 12:04:40;;;;;;;0.30;0.20;;;;;;;15.26;30.84;94765.03;5072959;28;20445;-58